Time;durP1;ratioP1;P1;durP2;ratioP2;P2;SDS_P1;SDS_P2;PMS_P1;PMS_P2;Temp;Humidity;BMP_temperature;BMP_pressure;BME280_temperature;BME280_humidity;BME280_pressure;Samples;Min_cycle;Max_cycle;Signal;HPM_P1;HPM_P2
2022/03/03 00:00:45;;;;;;;21.48;15.15;;;;;;;2.61;100.00;100708.01;1691798;84;21049;-84
2022/03/03 00:03:12;;;;;;;22.55;15.45;;;;;;;2.61;100.00;100710.58;1695043;84;21071;-85
2022/03/03 00:05:39;;;;;;;21.35;14.20;;;;;;;2.65;100.00;100716.82;1662290;84;21125;-84
2022/03/03 00:08:06;;;;;;;23.00;14.45;;;;;;;2.67;100.00;100709.06;1663582;84;21521;-84
2022/03/03 00:10:34;;;;;;;18.52;13.55;;;;;;;2.67;100.00;100709.06;1696744;83;21518;-84
2022/03/03 00:13:02;;;;;;;21.50;14.65;;;;;;;2.71;100.00;100713.17;1694925;84;21023;-84
2022/03/03 00:15:34;;;;;;;19.82;14.45;;;;;;;2.75;100.00;100721.59;1696484;83;21378;-84
2022/03/03 00:17:58;;;;;;;20.57;14.30;;;;;;;2.75;100.00;100707.02;1719303;82;21162;-84
2022/03/03 00:20:26;;;;;;;18.87;14.28;;;;;;;2.76;100.00;100706.12;1724204;83;22361;-84
2022/03/03 00:22:55;;;;;;;19.40;14.38;;;;;;;2.76;100.00;100703.55;1726167;82;21679;-83
2022/03/03 00:25:23;;;;;;;19.10;14.13;;;;;;;2.77;100.00;100703.91;1697165;83;21041;-88
2022/03/03 00:27:50;;;;;;;20.02;14.23;;;;;;;2.76;100.00;100703.55;1696748;83;21073;-89
2022/03/03 00:30:18;;;;;;;20.27;14.38;;;;;;;2.73;100.00;100697.23;1723238;82;21865;-85
2022/03/03 00:32:45;;;;;;;20.72;14.55;;;;;;;2.71;100.00;100694.34;1696827;83;21058;-85
2022/03/03 00:35:13;;;;;;;22.87;15.00;;;;;;;2.67;100.00;100690.61;1723472;83;21616;-84
2022/03/03 00:37:40;;;;;;;22.73;15.83;;;;;;;2.65;100.00;100683.39;1696967;83;21121;-85
2022/03/03 00:40:10;;;;;;;22.20;15.23;;;;;;;2.66;100.00;100679.11;1723671;83;21042;-85
2022/03/03 00:42:38;;;;;;;24.02;17.12;;;;;;;2.61;100.00;100675.44;1696745;83;22452;-84
2022/03/03 00:45:06;;;;;;;22.32;16.37;;;;;;;2.56;100.00;100671.37;1723419;82;21804;-85
2022/03/03 00:47:33;;;;;;;28.47;17.80;;;;;;;2.48;100.00;100666.56;1723290;82;21566;-85
2022/03/03 00:50:00;;;;;;;28.70;20.15;;;;;;;2.38;100.00;100663.50;1696431;83;21535;-85
2022/03/03 00:52:27;;;;;;;25.52;18.12;;;;;;;2.28;100.00;100664.79;1696373;83;21605;-85
2022/03/03 00:54:55;;;;;;;28.05;19.40;;;;;;;2.11;100.00;100655.16;1723826;82;21865;-84
2022/03/03 00:57:21;;;;;;;27.52;19.07;;;;;;;2.11;100.00;100655.16;1696353;83;21057;-84
2022/03/03 00:59:48;;;;;;;31.35;19.07;;;;;;;2.03;100.00;100651.16;1723272;83;21590;-85
2022/03/03 01:02:15;;;;;;;32.30;20.75;;;;;;;2.01;100.00;100652.12;1719238;83;22156;-84
2022/03/03 01:04:42;;;;;;;32.85;21.10;;;;;;;1.98;100.00;100647.09;1690787;83;21013;-85
2022/03/03 01:07:08;;;;;;;28.80;20.52;;;;;;;1.92;100.00;100641.77;1714988;82;21134;-85
2022/03/03 01:09:35;;;;;;;30.25;21.02;;;;;;;1.92;100.00;100641.77;1715247;82;21022;-85
2022/03/03 01:12:03;;;;;;;30.65;20.65;;;;;;;1.91;100.00;100638.80;1690207;82;21070;-85
2022/03/03 01:14:30;;;;;;;34.55;21.35;;;;;;;1.91;100.00;100635.38;1715046;82;21048;-86
2022/03/03 01:16:57;;;;;;;30.62;20.68;;;;;;;1.92;100.00;100631.92;1690023;82;21060;-84
2022/03/03 01:19:24;;;;;;;34.83;21.85;;;;;;;1.92;100.00;100625.50;1715298;82;21138;-85
2022/03/03 01:21:51;;;;;;;41.63;24.10;;;;;;;1.93;100.00;100618.19;1690371;83;21020;-84
2022/03/03 01:24:17;;;;;;;42.73;25.05;;;;;;;1.92;100.00;100617.80;1690854;83;21378;-87
2022/03/03 01:26:45;;;;;;;37.08;22.48;;;;;;;1.89;100.00;100613.16;1697995;83;21053;-84
2022/03/03 01:29:11;;;;;;;40.10;24.80;;;;;;;1.91;100.00;100610.55;1716528;83;21081;-84
2022/03/03 01:31:39;;;;;;;37.98;24.07;;;;;;;1.89;100.00;100606.73;1663827;84;21103;-86
2022/03/03 01:34:08;;;;;;;39.70;23.55;;;;;;;1.89;100.00;100606.73;1654437;85;21025;-84
2022/03/03 01:36:35;;;;;;;39.53;24.47;;;;;;;1.90;100.00;100606.31;1654592;85;21115;-84
2022/03/03 01:39:05;;;;;;;35.30;22.55;;;;;;;1.93;100.00;100602.78;1680153;85;21046;-85
2022/03/03 01:41:34;;;;;;;39.48;24.75;;;;;;;1.94;100.00;100593.72;1680872;84;21538;-85
2022/03/03 01:44:01;;;;;;;37.83;26.15;;;;;;;1.97;100.00;100597.46;1680492;84;21174;-85
2022/03/03 01:46:28;;;;;;;35.92;23.85;;;;;;;2.02;100.00;100593.43;1685173;84;21543;-85
2022/03/03 01:48:55;;;;;;;38.67;24.47;;;;;;;2.02;100.00;100593.43;1666641;84;21128;-85
2022/03/03 01:51:22;;;;;;;40.63;26.02;;;;;;;2.03;100.00;100583.55;1666177;85;21065;-84
2022/03/03 01:53:48;;;;;;;36.65;24.02;;;;;;;2.02;100.00;100585.27;1688706;85;21078;-85
2022/03/03 01:56:17;;;;;;;38.33;25.05;;;;;;;2.05;100.00;100585.16;1688208;85;21137;-84
2022/03/03 01:58:47;;;;;;;35.08;25.40;;;;;;;2.05;100.00;100585.16;1695875;83;21594;-85
2022/03/03 02:01:16;;;;;;;38.35;25.43;;;;;;;2.07;100.00;100588.11;1645137;86;21093;-85
2022/03/03 02:03:45;;;;;;;36.48;24.92;;;;;;;2.07;100.00;100582.52;1644852;85;21124;-87
2022/03/03 02:06:12;;;;;;;40.23;25.65;;;;;;;2.08;100.00;100586.75;1684380;84;21121;-86
2022/03/03 02:08:39;;;;;;;39.58;26.17;;;;;;;2.09;100.00;100583.30;1638170;85;21924;-88
2022/03/03 02:11:06;;;;;;;37.98;25.35;;;;;;;2.10;100.00;100581.12;1638021;85;21113;-90
2022/03/03 02:13:34;;;;;;;44.30;25.35;;;;;;;2.11;100.00;100585.36;1645300;85;21042;-89
2022/03/03 02:16:01;;;;;;;42.30;26.50;;;;;;;2.08;100.00;100578.23;1645027;85;21121;-89
2022/03/03 02:18:28;;;;;;;53.08;30.35;;;;;;;2.08;100.00;100578.23;1672862;84;21524;-87
2022/03/03 02:20:55;;;;;;;53.20;28.42;;;;;;;2.05;100.00;100590.72;1674008;85;21158;-90
2022/03/03 02:23:21;;;;;;;55.88;29.30;;;;;;;2.05;100.00;100590.72;1673745;84;21118;-88
2022/03/03 02:25:48;;;;;;;53.48;28.38;;;;;;;2.01;100.00;100582.30;1648782;84;21105;-88
2022/03/03 02:28:16;;;;;;;56.30;28.75;;;;;;;2.01;100.00;100582.30;1663570;84;21053;-85
2022/03/03 02:30:43;;;;;;;62.95;28.90;;;;;;;2.01;100.00;100577.62;1669736;85;21614;-88
2022/03/03 02:33:10;;;;;;;61.23;29.63;;;;;;;1.98;100.00;100573.45;1660999;85;21059;-89
2022/03/03 02:35:37;;;;;;;67.37;30.90;;;;;;;1.98;100.00;100573.45;1674043;85;21085;-87
2022/03/03 02:38:04;;;;;;;64.87;31.42;;;;;;;2.02;100.00;100563.89;1662516;85;21071;-87
2022/03/03 02:40:31;;;;;;;61.30;30.20;;;;;;;2.02;100.00;100563.89;1648906;85;21034;-87
2022/03/03 02:42:58;;;;;;;62.83;29.23;;;;;;;2.02;100.00;100556.19;1662178;85;21559;-88
2022/03/03 02:45:25;;;;;;;71.55;31.60;;;;;;;2.02;100.00;100556.19;1678005;83;21097;-87
2022/03/03 02:47:52;;;;;;;62.35;28.62;;;;;;;2.05;100.00;100560.75;1686641;84;21022;-87
2022/03/03 02:50:29;;;;;;;65.85;31.70;;;;;;;2.06;100.00;100553.86;1699846;84;21056;-88
2022/03/03 02:52:57;;;;;;;66.90;31.55;;;;;;;2.09;100.00;100543.48;1725772;83;21054;-85
2022/03/03 02:55:25;;;;;;;63.05;30.43;;;;;;;2.09;100.00;100543.48;1706690;84;21069;-85
2022/03/03 02:57:54;;;;;;;61.40;30.23;;;;;;;2.08;100.00;100536.66;1698059;84;21156;-85
2022/03/03 03:00:35;;;;;;;58.15;30.12;;;;;;;2.04;100.00;100537.70;1676133;84;21065;-85
2022/03/03 03:02:59;;;;;;;60.65;30.77;;;;;;;2.00;100.00;100538.70;1723556;83;21026;-85
2022/03/03 03:05:25;;;;;;;52.00;28.30;;;;;;;1.97;100.00;100536.25;1707433;84;21005;-84
2022/03/03 03:07:53;;;;;;;53.98;28.73;;;;;;;1.97;100.00;100536.25;1673903;84;21078;-85
2022/03/03 03:10:20;;;;;;;54.55;28.35;;;;;;;2.00;100.00;100535.68;1679522;84;21172;-85
2022/03/03 03:12:47;;;;;;;53.92;29.98;;;;;;;2.03;100.00;100534.74;1665600;84;21058;-84
2022/03/03 03:15:13;;;;;;;55.83;30.08;;;;;;;2.04;100.00;100535.13;1688027;84;21030;-85
2022/03/03 03:17:44;;;;;;;53.90;28.52;;;;;;;2.08;100.00;100524.28;1732084;82;21342;-84
2022/03/03 03:20:11;;;;;;;53.58;28.77;;;;;;;2.08;100.00;100524.28;1707543;82;21022;-84
2022/03/03 03:22:38;;;;;;;52.70;29.57;;;;;;;2.12;100.00;100529.66;1732241;82;21148;-86
2022/03/03 03:25:12;;;;;;;51.68;28.87;;;;;;;2.12;100.00;100529.66;1732048;82;21481;-84
2022/03/03 03:27:41;;;;;;;56.08;30.72;;;;;;;2.09;100.00;100524.64;1706811;82;21019;-83
2022/03/03 03:32:43;;;;;;;44.38;26.30;;;;;;;2.05;100.00;100518.80;1706841;82;21044;-85
2022/03/03 03:35:10;;;;;;;52.15;30.10;;;;;;;2.05;100.00;100518.80;1706885;82;21068;-85
2022/03/03 03:37:37;;;;;;;47.23;28.30;;;;;;;2.07;100.00;100518.29;1707075;82;20988;-85
2022/03/03 03:40:07;;;;;;;47.23;28.12;;;;;;;2.08;100.00;100521.25;1732479;82;21032;-84
2022/03/03 03:42:35;;;;;;;52.63;30.10;;;;;;;2.07;100.00;100520.86;1706958;82;21601;-86
2022/03/03 03:45:04;;;;;;;52.45;29.65;;;;;;;2.08;100.00;100523.81;1704471;82;21035;-85
2022/03/03 03:47:31;;;;;;;52.93;30.65;;;;;;;2.07;100.00;100519.58;1725831;82;21138;-84
2022/03/03 03:50:02;;;;;;;50.88;31.05;;;;;;;2.05;100.00;100508.52;1723640;82;20993;-85
2022/03/03 03:52:26;;;;;;;45.67;29.70;;;;;;;2.04;100.00;100515.41;1719320;83;21438;-86
2022/03/03 03:54:53;;;;;;;47.62;31.35;;;;;;;1.98;100.00;100505.82;1723863;82;21052;-86
2022/03/03 03:57:20;;;;;;;45.92;30.40;;;;;;;1.94;100.00;100506.86;1724009;83;21056;-84
2022/03/03 03:59:47;;;;;;;46.70;30.97;;;;;;;1.93;100.00;100503.91;1723800;82;21146;-84
2022/03/03 04:02:14;;;;;;;46.30;30.20;;;;;;;1.93;100.00;100503.91;1695047;82;21537;-85
2022/03/03 04:04:41;;;;;;;46.83;30.52;;;;;;;1.89;100.00;100498.05;1695512;83;21044;-85
2022/03/03 04:07:07;;;;;;;46.88;30.97;;;;;;;1.90;100.00;100502.30;1694948;83;21036;-87
2022/03/03 04:09:37;;;;;;;43.80;29.25;;;;;;;1.89;100.00;100500.63;1723700;83;21041;-84
2022/03/03 04:12:03;;;;;;;45.98;30.70;;;;;;;1.88;100.00;100494.64;1695144;83;21101;-84
2022/03/03 04:14:30;;;;;;;50.08;31.12;;;;;;;1.85;100.00;100487.50;1723705;82;21084;-83
2022/03/03 04:16:57;;;;;;;46.25;28.55;;;;;;;1.88;100.00;100485.65;1694966;82;21072;-83
2022/03/03 04:19:24;;;;;;;44.25;28.80;;;;;;;1.91;100.00;100488.56;1694603;82;21029;-83
2022/03/03 04:21:51;;;;;;;43.73;28.98;;;;;;;1.93;100.00;100484.17;1694945;83;21612;-84
2022/03/03 04:24:18;;;;;;;43.50;27.67;;;;;;;1.93;100.00;100484.17;1723710;82;21162;-83
2022/03/03 04:26:44;;;;;;;47.85;29.85;;;;;;;1.91;100.00;100479.58;1723693;82;21100;-83
2022/03/03 04:29:11;;;;;;;46.08;30.05;;;;;;;1.92;100.00;100478.69;1695281;82;21053;-85
2022/03/03 04:31:38;;;;;;;46.95;29.70;;;;;;;1.89;100.00;100480.08;1695077;83;21750;-85
2022/03/03 04:34:05;;;;;;;44.67;29.18;;;;;;;1.86;100.00;100473.34;1695065;82;21529;-84
2022/03/03 04:36:32;;;;;;;46.45;29.60;;;;;;;1.84;100.00;100471.74;1689159;83;21101;-83
2022/03/03 04:38:59;;;;;;;44.18;29.85;;;;;;;1.81;100.00;100468.83;1716119;83;21899;-84
2022/03/03 04:41:26;;;;;;;51.15;29.95;;;;;;;1.79;100.00;100464.66;1716986;82;21037;-83
2022/03/03 04:43:53;;;;;;;47.62;28.98;;;;;;;1.76;100.00;100466.91;1665227;84;21086;-85
2022/03/03 04:46:19;;;;;;;47.75;29.65;;;;;;;1.71;100.00;100462.42;1668337;84;21231;-84
2022/03/03 04:48:46;;;;;;;46.20;28.67;;;;;;;1.71;100.00;100462.42;1660621;85;21133;-84
2022/03/03 04:51:15;;;;;;;43.05;27.52;;;;;;;1.73;100.00;100465.73;1685778;84;21646;-83
2022/03/03 04:53:42;;;;;;;53.50;31.07;;;;;;;1.75;100.00;100457.99;1691931;84;21036;-85
2022/03/03 04:56:09;;;;;;;48.68;28.42;;;;;;;1.75;100.00;100457.99;1677219;84;21048;-86
2022/03/03 04:58:36;;;;;;;48.42;29.35;;;;;;;1.75;100.00;100460.56;1699115;84;21028;-85
2022/03/03 05:01:04;;;;;;;48.50;28.45;;;;;;;1.75;100.00;100460.56;1662761;83;21105;-84
2022/03/03 05:03:30;;;;;;;53.50;29.52;;;;;;;1.74;100.00;100459.70;1668374;84;21034;-84
2022/03/03 05:05:57;;;;;;;57.48;30.00;;;;;;;1.75;100.00;100458.81;1691548;84;21094;-83
2022/03/03 05:08:24;;;;;;;58.45;30.08;;;;;;;1.73;100.00;100457.60;1668491;84;20994;-85
2022/03/03 05:10:52;;;;;;;57.10;29.18;;;;;;;1.72;100.00;100455.11;1692698;84;21058;-83
2022/03/03 05:13:19;;;;;;;54.23;28.32;;;;;;;1.72;100.00;100448.69;1692113;84;21146;-84
2022/03/03 05:15:48;;;;;;;54.08;26.60;;;;;;;1.72;100.00;100446.94;1692701;84;21061;-83
2022/03/03 05:18:16;;;;;;;57.05;27.95;;;;;;;1.73;100.00;100438.34;1668170;84;21010;-84
2022/03/03 05:20:43;;;;;;;55.45;29.55;;;;;;;1.75;100.00;100434.88;1668713;84;21160;-86
2022/03/03 05:23:10;;;;;;;55.05;29.18;;;;;;;1.77;100.00;100430.06;1664303;84;21551;-85
2022/03/03 05:25:37;;;;;;;56.95;30.23;;;;;;;1.77;100.00;100430.06;1679968;85;21130;-83
2022/03/03 05:28:04;;;;;;;51.20;28.67;;;;;;;1.75;100.00;100431.86;1694449;84;21065;-85
2022/03/03 05:30:33;;;;;;;60.17;31.33;;;;;;;1.76;100.00;100439.95;1660199;85;21137;-85
2022/03/03 05:33:00;;;;;;;52.48;28.35;;;;;;;1.80;100.00;100443.22;1641564;86;21052;-87
2022/03/03 05:35:27;;;;;;;56.40;30.17;;;;;;;1.82;100.00;100446.11;1683547;84;21016;-84
2022/03/03 05:37:55;;;;;;;49.03;27.77;;;;;;;1.83;100.00;100448.24;1691948;84;21591;-84
2022/03/03 05:40:26;;;;;;;51.80;26.82;;;;;;;1.85;100.00;100445.98;1692012;84;38480;-85
2022/03/03 05:42:55;;;;;;;51.18;28.67;;;;;;;1.87;100.00;100445.48;1668029;84;21641;-93
2022/03/03 05:45:23;;;;;;;47.70;27.93;;;;;;;1.99;100.00;100449.70;1667729;84;21156;-83
2022/03/03 05:47:53;;;;;;;50.58;28.57;;;;;;;2.05;100.00;100448.16;1682823;84;21052;-85
2022/03/03 05:50:20;;;;;;;43.50;26.50;;;;;;;2.02;100.00;100437.56;1694433;83;21197;-81
2022/03/03 05:52:48;;;;;;;47.15;27.65;;;;;;;2.02;100.00;100437.56;1701716;83;21766;-80
2022/03/03 05:55:15;;;;;;;48.23;27.13;;;;;;;2.10;100.00;100434.69;1728968;83;21029;-81
2022/03/03 05:57:49;;;;;;;49.75;27.73;;;;;;;2.23;100.00;100429.01;1693365;84;21194;-82
2022/03/03 06:00:18;;;;;;;46.75;26.57;;;;;;;2.33;100.00;100421.30;1681624;84;21058;-80
2022/03/03 06:02:52;;;;;;;45.80;26.68;;;;;;;2.37;100.00;100424.09;1697236;83;21189;-82
2022/03/03 06:05:25;;;;;;;45.00;27.00;;;;;;;2.46;100.00;100422.88;1728661;83;20989;-82
2022/03/03 06:08:04;;;;;;;54.98;27.93;;;;;;;2.42;100.00;100426.47;1697226;84;21088;-78
2022/03/03 06:10:42;;;;;;;62.08;32.45;;;;;;;2.34;100.00;100419.11;1732049;81;21077;-79
2022/03/03 06:13:45;;;;;;;54.30;29.07;;;;;;;2.30;100.00;100421.42;1684876;84;21045;-81
2022/03/03 06:16:19;;;;;;;57.83;28.17;;;;;;;2.27;100.00;100422.39;1697415;83;21642;-80
2022/03/03 06:18:49;;;;;;;47.23;27.13;;;;;;;2.25;100.00;100419.51;1683409;83;21046;-79
2022/03/03 06:21:19;;;;;;;60.43;26.75;;;;;;;2.23;100.00;100418.73;1710103;83;21610;-80
2022/03/03 06:23:48;;;;;;;49.67;28.30;;;;;;;2.21;100.00;100414.95;1697024;83;21026;-81
2022/03/03 06:26:19;;;;;;;43.85;27.48;;;;;;;2.42;100.00;100408.05;1700727;83;21058;-85
2022/03/03 06:28:52;;;;;;;42.80;26.37;;;;;;;2.54;100.00;100398.95;1656586;83;21140;-80
2022/03/03 06:31:16;;;;;;;39.53;25.17;;;;;;;2.52;100.00;100396.89;1728055;83;21081;-81
2022/03/03 06:33:45;;;;;;;44.65;26.33;;;;;;;2.38;100.00;100405.21;1700108;84;20978;-81
2022/03/03 06:36:12;;;;;;;45.20;26.62;;;;;;;2.41;100.00;100410.23;1701767;83;21049;-81
2022/03/03 06:38:39;;;;;;;47.27;26.33;;;;;;;2.45;100.00;100406.60;1673214;84;21140;-82
2022/03/03 06:41:09;;;;;;;43.83;25.65;;;;;;;2.38;100.00;100405.67;1686375;84;21822;-82
2022/03/03 06:43:37;;;;;;;41.90;25.72;;;;;;;2.42;100.00;100400.33;1683134;84;21005;-80
2022/03/03 06:46:06;;;;;;;42.43;25.10;;;;;;;2.54;100.00;100388.66;1719924;83;21057;-81
2022/03/03 06:48:33;;;;;;;45.10;27.37;;;;;;;2.52;100.00;100379.72;1714522;82;21088;-80
2022/03/03 06:51:06;;;;;;;47.58;27.17;;;;;;;2.52;100.00;100378.44;1691100;84;21598;-83
2022/03/03 06:53:39;;;;;;;61.42;26.52;;;;;;;2.67;100.00;100373.52;1713595;83;21120;-87
2022/03/03 06:56:09;;;;;;;75.20;28.75;;;;;;;2.77;100.00;100374.73;1685721;83;21162;-83
2022/03/03 06:58:38;;;;;;;47.40;27.30;;;;;;;2.89;100.00;100364.80;1705457;83;21097;-82
2022/03/03 07:01:08;;;;;;;39.27;24.55;;;;;;;3.14;100.00;100368.31;1718179;83;21546;-84
2022/03/03 07:03:37;;;;;;;33.28;22.98;;;;;;;3.17;100.00;100360.46;1705060;82;21044;-87
2022/03/03 07:06:05;;;;;;;34.23;21.62;;;;;;;3.10;100.00;100350.09;1696612;84;21057;-85
2022/03/03 07:08:34;;;;;;;30.50;21.02;;;;;;;3.11;100.00;100353.05;1673439;84;21558;-84
2022/03/03 07:11:01;;;;;;;30.72;21.37;;;;;;;3.18;100.00;100350.98;1701113;84;21136;-84
2022/03/03 07:13:30;;;;;;;32.15;21.87;;;;;;;3.09;100.00;100358.23;1705079;84;21111;-86
2022/03/03 07:16:23;;;;;;;31.33;20.08;;;;;;;3.09;100.00;100356.95;1668317;84;21137;-88
2022/03/03 07:18:52;;;;;;;27.40;19.17;;;;;;;3.22;100.00;100352.52;1696530;84;21209;-86
2022/03/03 07:21:31;;;;;;;27.45;18.48;;;;;;;3.26;100.00;100353.58;1697128;84;21127;-87
2022/03/03 07:24:13;;;;;;;22.80;16.45;;;;;;;3.18;100.00;100352.27;1693223;84;21080;-86
2022/03/03 07:26:42;;;;;;;19.95;14.65;;;;;;;3.15;100.00;100345.11;1691389;84;21030;-84
2022/03/03 07:29:17;;;;;;;22.02;15.98;;;;;;;3.08;100.00;100342.45;1660607;84;21053;-86
2022/03/03 07:31:55;;;;;;;20.30;14.53;;;;;;;2.96;100.00;100345.59;1687997;84;21150;-81
2022/03/03 07:34:28;;;;;;;18.25;13.55;;;;;;;2.92;100.00;100336.38;1695443;84;21105;-81
2022/03/03 07:36:58;;;;;;;17.92;13.93;;;;;;;2.83;100.00;100332.48;1695698;83;22162;-80
2022/03/03 07:39:30;;;;;;;17.37;13.75;;;;;;;2.68;100.00;100325.88;1668491;84;21061;-84
2022/03/03 07:41:56;;;;;;;;;;;;;;;2.61;100.00;100320.64;1703343;84;21086;-82
2022/03/03 07:44:23;;;;;;;17.98;14.10;;;;;;;2.58;100.00;100317.38;1704836;84;21162;-79
2022/03/03 07:46:50;;;;;;;15.93;12.88;;;;;;;2.57;100.00;100324.70;1668155;84;21068;-80
2022/03/03 07:49:22;;;;;;;16.70;13.50;;;;;;;2.52;100.00;100327.48;1675552;84;21078;-81
2022/03/03 07:51:50;;;;;;;14.98;12.93;;;;;;;2.55;100.00;100314.94;1702040;83;21081;-81
2022/03/03 07:54:17;;;;;;;16.73;13.72;;;;;;;2.53;100.00;100311.98;1697230;83;21616;-80
2022/03/03 07:56:49;;;;;;;28.02;13.28;;;;;;;2.49;100.00;100305.77;1715648;83;21754;-79
2022/03/03 07:59:18;;;;;;;17.75;14.00;;;;;;;2.52;100.00;100309.03;1675431;83;21469;-81
2022/03/03 08:01:48;;;;;;;17.10;13.60;;;;;;;2.66;100.00;100307.57;1662860;84;21523;-83
2022/03/03 08:04:16;;;;;;;15.85;13.13;;;;;;;2.64;100.00;100302.95;1666371;84;21053;-86
2022/03/03 08:06:45;;;;;;;15.23;12.23;;;;;;;2.56;100.00;100289.19;1665329;84;21071;-85
2022/03/03 08:09:14;;;;;;;14.47;11.97;;;;;;;2.56;100.00;100289.19;1704456;83;21836;-80
2022/03/03 08:11:43;;;;;;;12.68;11.30;;;;;;;2.57;100.00;100291.28;1716588;81;21042;-79
2022/03/03 08:14:11;;;;;;;12.03;10.20;;;;;;;2.59;100.00;100287.73;1714269;82;21006;-85
2022/03/03 08:16:42;;;;;;;12.70;10.63;;;;;;;2.59;100.00;100292.05;1717269;81;21070;-84
2022/03/03 08:19:09;;;;;;;10.10;9.10;;;;;;;2.61;100.00;100292.36;1705234;83;21572;-82
2022/03/03 08:21:37;;;;;;;9.78;8.78;;;;;;;2.62;100.00;100287.60;1630195;84;21141;-82
2022/03/03 08:24:04;;;;;;;9.18;8.28;;;;;;;2.60;100.00;100288.12;1687772;83;21034;-79
2022/03/03 08:26:31;;;;;;;10.25;9.23;;;;;;;2.58;100.00;100279.64;1690559;84;21742;-79
2022/03/03 08:28:58;;;;;;;10.50;8.95;;;;;;;2.59;100.00;100281.77;1690749;84;21045;-90
2022/03/03 08:31:38;;;;;;;11.35;9.30;;;;;;;2.61;100.00;100274.80;1681545;84;21057;-88
2022/03/03 08:34:17;;;;;;;9.30;8.18;;;;;;;2.62;100.00;100268.32;1689123;84;21198;-89
2022/03/03 08:36:54;;;;;;;10.35;8.33;;;;;;;2.64;100.00;100261.81;1667976;84;21081;-89
2022/03/03 08:39:27;;;;;;;8.65;7.58;;;;;;;2.61;100.00;100249.09;1667986;84;21160;-81
2022/03/03 08:41:58;;;;;;;11.97;8.53;;;;;;;2.60;100.00;100251.31;1678316;84;21519;-84
2022/03/03 08:44:33;;;;;;;8.28;7.47;;;;;;;2.57;100.00;100234.73;1694420;84;21075;-85
2022/03/03 08:47:05;;;;;;;10.93;8.53;;;;;;;2.57;100.00;100234.73;1691058;84;22345;-85
2022/03/03 08:49:39;;;;;;;10.20;9.10;;;;;;;2.61;100.00;100227.23;1682849;84;21035;-82
2022/03/03 08:52:08;;;;;;;9.73;8.50;;;;;;;2.63;100.00;100216.44;1665814;85;21026;-81
2022/03/03 08:54:35;;;;;;;10.45;8.95;;;;;;;2.71;100.00;100215.61;1689298;84;22116;-83
2022/03/03 08:57:02;;;;;;;9.03;8.13;;;;;;;2.81;100.00;100212.98;1693051;83;21041;-84
2022/03/03 08:59:30;;;;;;;12.47;10.00;;;;;;;2.96;100.00;100202.39;1643487;85;21121;-81
2022/03/03 09:01:57;;;;;;;8.93;8.03;;;;;;;3.20;100.00;100182.77;1665870;84;21011;-82
2022/03/03 09:04:24;;;;;;;8.28;7.47;;;;;;;3.20;100.00;100182.77;1699522;81;21037;-83
2022/03/03 09:06:51;;;;;;;8.35;7.50;;;;;;;3.23;100.00;100176.63;1716303;82;21589;-80
2022/03/03 09:09:19;;;;;;;10.72;8.15;;;;;;;3.20;100.00;100181.92;1709375;82;21685;-81
2022/03/03 09:11:46;;;;;;;8.50;7.60;;;;;;;3.15;100.00;100183.44;1683431;83;22046;-80
2022/03/03 09:14:13;;;;;;;9.90;8.45;;;;;;;3.15;100.00;100179.58;1706856;83;21746;-80
2022/03/03 09:16:41;;;;;;;15.55;10.88;;;;;;;3.15;100.00;100177.00;1692071;84;21060;-84
2022/03/03 09:19:08;;;;;;;14.18;9.63;;;;;;;3.16;100.00;100178.20;1670069;85;21054;-85
2022/03/03 09:21:35;;;;;;;10.90;8.85;;;;;;;3.20;100.00;100173.77;1657296;85;21518;-85
2022/03/03 09:24:02;;;;;;;7.95;7.15;;;;;;;3.22;100.00;100172.39;1685237;83;21139;-87
2022/03/03 09:26:30;;;;;;;13.50;9.70;;;;;;;3.21;100.00;100173.30;1661691;83;21176;-86
2022/03/03 09:28:58;;;;;;;8.88;7.87;;;;;;;3.25;100.00;100181.22;1703283;83;21103;-87
2022/03/03 09:31:25;;;;;;;9.08;7.85;;;;;;;3.27;100.00;100178.12;1661459;84;21562;-88
2022/03/03 09:33:53;;;;;;;7.58;6.85;;;;;;;3.23;100.00;100172.77;1689057;83;21096;-83
2022/03/03 09:36:20;;;;;;;7.53;6.72;;;;;;;3.16;100.00;100177.39;1689039;83;21960;-83
2022/03/03 09:38:47;;;;;;;8.10;7.30;;;;;;;3.12;100.00;100183.61;1673568;83;21043;-83
2022/03/03 09:41:15;;;;;;;7.15;6.45;;;;;;;3.10;100.00;100174.66;1704302;81;21585;-82
2022/03/03 09:43:47;;;;;;;8.58;6.50;;;;;;;3.11;100.00;100164.75;1704876;82;21050;-82
2022/03/03 09:46:14;;;;;;;10.58;7.50;;;;;;;3.13;100.00;100169.37;1689749;84;21503;-83
2022/03/03 09:48:42;;;;;;;6.80;6.17;;;;;;;3.09;100.00;100163.17;1705458;81;21160;-84
2022/03/03 09:51:09;;;;;;;7.30;6.60;;;;;;;3.05;100.00;100154.78;1681283;83;21580;-83
2022/03/03 09:53:55;;;;;;;7.53;6.83;;;;;;;3.05;100.00;100158.64;1692551;84;21167;-82
2022/03/03 09:56:23;;;;;;;11.48;6.67;;;;;;;3.07;100.00;100158.12;1660524;84;21625;-81
2022/03/03 09:58:51;;;;;;;8.00;7.00;;;;;;;3.13;100.00;100153.94;1668969;83;21019;-81
2022/03/03 10:01:18;;;;;;;7.03;6.37;;;;;;;3.23;100.00;100145.28;1638566;86;21088;-82
2022/03/03 10:03:47;;;;;;;9.88;6.60;;;;;;;3.42;100.00;100147.72;1689091;83;21078;-80
2022/03/03 10:06:14;;;;;;;5.90;5.05;;;;;;;3.51;100.00;100141.70;1694101;84;21076;-80
2022/03/03 10:08:42;;;;;;;10.72;6.40;;;;;;;3.46;100.00;100132.50;1694241;83;21059;-82
2022/03/03 10:11:10;;;;;;;6.92;6.22;;;;;;;3.47;100.00;100135.45;1694734;83;21589;-79
2022/03/03 10:13:52;;;;;;;5.83;5.33;;;;;;;3.47;100.00;100135.45;1694213;83;21032;-81
2022/03/03 10:16:26;;;;;;;;;;;;;;;3.50;100.00;100128.45;1671130;83;21533;-80
2022/03/03 10:19:04;;;;;;;7.00;6.25;;;;;;;3.48;100.00;100130.65;1720465;83;20161;-81
2022/03/03 10:21:33;;;;;;;6.60;5.95;;;;;;;3.47;100.00;100123.02;1691872;83;21511;-80
2022/03/03 10:24:19;;;;;;;5.87;5.37;;;;;;;3.41;100.00;100113.88;1691470;83;21057;-81
2022/03/03 10:26:47;;;;;;;6.35;5.55;;;;;;;3.38;100.00;100106.34;1691160;83;21269;-81
2022/03/03 10:29:20;;;;;;;6.10;5.45;;;;;;;3.41;100.00;100105.34;1691863;83;21590;-83
2022/03/03 10:31:56;;;;;;;5.55;5.05;;;;;;;3.42;100.00;100114.25;1691572;83;21062;-84
2022/03/03 10:34:34;;;;;;;5.87;5.17;;;;;;;3.43;100.00;100108.20;1716946;83;22002;-80
2022/03/03 10:37:08;;;;;;;5.70;5.20;;;;;;;3.44;100.00;100103.89;1710367;83;21621;-81
2022/03/03 10:39:44;;;;;;;5.60;5.10;;;;;;;3.47;100.00;100100.70;1696754;83;21684;-81
2022/03/03 10:42:20;;;;;;;9.50;5.70;;;;;;;3.53;100.00;100096.12;1723105;82;21324;-81
2022/03/03 10:44:50;;;;;;;5.80;5.30;;;;;;;3.61;100.00;100095.25;1677580;83;21100;-81
2022/03/03 10:47:24;;;;;;;6.17;5.67;;;;;;;3.68;100.00;100084.17;1701523;84;21109;-80
2022/03/03 10:49:57;;;;;;;5.85;5.25;;;;;;;3.76;100.00;100088.44;1696442;84;22268;-80
2022/03/03 10:52:32;;;;;;;5.33;4.83;;;;;;;3.82;100.00;100076.95;1654734;83;21136;-81
2022/03/03 10:55:11;;;;;;;5.60;5.10;;;;;;;3.78;100.00;100082.73;1677266;84;21098;-81
2022/03/03 10:57:50;;;;;;;5.90;5.17;;;;;;;3.75;100.00;100075.19;1664124;85;21068;-81
2022/03/03 11:00:24;;;;;;;5.30;4.80;;;;;;;3.72;100.00;100071.05;1676456;84;21065;-83
2022/03/03 11:02:55;;;;;;;4.90;4.50;;;;;;;3.66;100.00;100058.48;1693574;84;21147;-82
2022/03/03 11:05:26;;;;;;;4.17;3.77;;;;;;;3.57;100.00;100054.69;1676847;84;21546;-81
2022/03/03 11:07:53;;;;;;;4.27;3.90;;;;;;;3.44;100.00;100055.80;1662556;84;21073;-81
2022/03/03 11:10:24;;;;;;;5.55;5.03;;;;;;;3.36;100.00;100052.81;1659826;84;21026;-82
2022/03/03 11:12:52;;;;;;;5.10;4.60;;;;;;;3.30;100.00;100048.82;1663223;84;21077;-80
2022/03/03 11:15:24;;;;;;;9.15;6.05;;;;;;;3.33;100.00;100048.29;1676739;84;21116;-82
2022/03/03 11:17:55;;;;;;;6.28;5.25;;;;;;;3.33;100.00;100049.11;1695106;83;21178;-81
2022/03/03 11:20:23;;;;;;;5.17;4.67;;;;;;;3.33;100.00;100043.96;1677063;83;21615;-81
2022/03/03 11:22:56;;;;;;;4.70;4.00;;;;;;;3.31;100.00;100041.48;1665667;84;21159;-81
2022/03/03 11:25:35;;;;;;;4.62;4.22;;;;;;;3.31;100.00;100038.09;1721017;83;21058;-83